»·PEaware :: N3096T KDLS-KPDX

N3096T :: KDLS-KPDX

FLIGHT INFORMATION

Flight Status: Arrived
Operator: Privately registered:
United States
More flights under this callsign
Pilot: Russell S. (24346)
Aircraft: BEECH AIRCRAFT DEBONAIR BONANZA
(BE33)
More flights by this aircraft type
Origin: KDLS Columbia Gorge Regl/The Dalle
United States
Destination: KPDX Portland Intl
United States
More flights between these airports :: More routes between these airports
Route: DALLES1 LTJ BTG
File this flight plan on PilotEdge
Remarks:
Altitude:
(Current/Filed)
8,000ft
Speed:
(Current/Filed)
160kts
Departed: 09-Oct-19 07:43 AM
Arrived: 09-Oct-19 08:22 AM
Distance/Time
Traveled:
59nm/0:39
Distance/Time
To Go:
Arrived

Flight Plot

Page will automatically refresh every two minutes.

Flight plan parsing failed; only flown route is shown


Map Options




Map Legend


Flown Route
Filed Route
Departure Airport
Arrival Airport
Navaid (VOR, NDB)
Fix

Horizontal Profiles

Position Reports

Time Latitude Longitude Heading Altitude Ground
Speed
09-Oct-19 07:28 45.618282 -121.171418 331 221ft 0kts
09-Oct-19 07:29 45.618282 -121.171418 331 221ft 0kts
09-Oct-19 07:30 45.618282 -121.171418 331 221ft 0kts
09-Oct-19 07:31 45.618282 -121.171418 331 221ft 0kts
09-Oct-19 07:32 45.618282 -121.171418 331 221ft 0kts
09-Oct-19 07:33 45.618282 -121.171418 331 221ft 0kts
09-Oct-19 07:34 45.618282 -121.171418 331 221ft 0kts
09-Oct-19 07:35 45.618282 -121.171418 331 221ft 0kts
09-Oct-19 07:36 45.618369 -121.171167 100 221ft 7kts
09-Oct-19 07:37 45.616882 -121.169464 144 227ft 17kts
09-Oct-19 07:38 45.614666 -121.165902 144 235ft 18kts
09-Oct-19 07:39 45.612195 -121.163155 105 240ft 0kts
09-Oct-19 07:40 45.612195 -121.163155 105 240ft 0kts
09-Oct-19 07:41 45.612431 -121.162189 328 240ft 0kts
09-Oct-19 07:42 45.625150 -121.175377 320 781ft 96kts
09-Oct-19 07:43 45.613227 -121.198177 149 2023ft 121kts
09-Oct-19 07:44 45.587632 -121.165494 136 3197ft 127kts
09-Oct-19 07:45 45.559252 -121.129199 151 4010ft 143kts
09-Oct-19 07:46 45.530619 -121.104470 70 4966ft 124kts
09-Oct-19 07:47 45.554806 -121.090956 352 6144ft 87kts
09-Oct-19 07:48 45.578052 -121.093133 353 7067ft 89kts
09-Oct-19 07:49 45.604362 -121.094964 355 7881ft 99kts
09-Oct-19 07:50 45.637961 -121.096958 356 7996ft 141kts
09-Oct-19 07:51 45.678924 -121.099075 356 7990ft 151kts
09-Oct-19 07:52 45.710207 -121.126007 285 7993ft 158kts
09-Oct-19 07:53 45.715416 -121.189169 277 7990ft 161kts
09-Oct-19 07:54 45.717777 -121.253379 276 7990ft 162kts
09-Oct-19 07:55 45.719675 -121.318800 276 7989ft 163kts
09-Oct-19 07:56 45.721452 -121.383530 276 7989ft 163kts
09-Oct-19 07:57 45.723188 -121.448469 276 7989ft 163kts
09-Oct-19 07:58 45.724900 -121.513517 276 7990ft 163kts
09-Oct-19 07:59 45.726496 -121.578285 275 7953ft 165kts
09-Oct-19 08:00 45.728221 -121.643620 275 7943ft 163kts
09-Oct-19 08:01 45.729735 -121.708883 275 7738ft 164kts
09-Oct-19 08:02 45.731059 -121.774636 274 6899ft 167kts
09-Oct-19 08:03 45.732850 -121.841791 274 6011ft 169kts
09-Oct-19 08:04 45.716540 -121.901349 228 5976ft 174kts
09-Oct-19 08:05 45.683367 -121.951690 228 5981ft 174kts
09-Oct-19 08:06 45.650262 -122.001879 228 5981ft 174kts
09-Oct-19 08:07 45.616963 -122.052126 227 5968ft 174kts
09-Oct-19 08:08 45.583759 -122.102377 228 5958ft 167kts
09-Oct-19 08:09 45.551738 -122.151025 229 5958ft 165kts
09-Oct-19 08:10 45.523167 -122.194072 227 5813ft 136kts
09-Oct-19 08:11 45.499124 -122.229883 228 4995ft 121kts
09-Oct-19 08:12 45.487568 -122.271598 263 4172ft 119kts
09-Oct-19 08:13 45.486332 -122.317795 299 3221ft 115kts
09-Oct-19 08:14 45.500342 -122.354408 300 2904ft 101kts
09-Oct-19 08:15 45.512852 -122.386274 301 2830ft 102kts
09-Oct-19 08:16 45.523627 -122.413737 299 2060ft 116kts
09-Oct-19 08:17 45.536073 -122.445481 300 2038ft 99kts
09-Oct-19 08:18 45.548802 -122.477922 300 1455ft 101kts
09-Oct-19 08:19 45.566504 -122.523118 300 789ft 95kts
09-Oct-19 08:20 45.579147 -122.555563 299 320ft 76kts
09-Oct-19 08:21 45.587689 -122.577393 297 20ft 30kts
09-Oct-19 08:22 45.588651 -122.582198 209 20ft 0kts
09-Oct-19 08:23 45.587042 -122.582351 27 20ft 0kts

Navigation Log

Ident Type
Flight plan parsing failed, navigation log unavailable